Historyczne dane pomiarowe

Dodano dane terminowe – wersja testowa.

Dane z okresu 1951-2019

Wersja bazy: 1.34 [2019-03-16, lista zmian], aktualizacja planowana na 2019-04-15

Dane meteo z obszaru Polski uzyskane na podstawie danych udostępnionych przez Instytut Meteorologii i Gospodarki Wodnej – Państwowy Instytut Badawczy.

 

Wybierz Datę:    

       

TemperaturaWilgotnośćWiatrCiśnienieOpadyŚniegCzas trwania zjawisk
 Stacja t tx tn tng RH VA  wxwx mslp ppp RRR   cm mm wxwxwxwxwxwxwx
1977-10-10 13.6 19.8 9.6- 82.5- 0.0 1.3---- 0.0------------
1977-10-09 15.5 21.5 11.3- 80.8- 0.0 3.3---- 0.0------------
1977-10-08 15.5 21.6 10.6- 82.5- 0.0 5.0---- 0.0------------
1977-10-07 13.6 18.6 9.6- 91.0- 2.7 2.7---- 0.0------------
1977-10-06 10.3 13.5 4.5- 98.8- 8.0 1.3---- 0.4------------
1977-10-05 10.5 14.2 8.7- 92.0- 7.7 2.7---- 2.8------------
1977-10-04 7.3 8.9 6.1- 97.0- 8.0 3.7---- 5.6------------
1977-10-03 6.7 10.1 4.1- 93.0- 6.0 2.3---- 4.9------------
1977-10-02 7.4 8.3 6.3- 88.5- 7.7 6.3---- 2.9------------
1977-10-01 9.7 12.3 6.8- 90.5- 7.0 7.7---- 2.3------------
1977-09-30 11.0 12.5 10.3- 96.3- 8.0 7.7---- 9.4------------
1977-09-29 11.4 16.3 7.1- 75.3- 7.3 5.0---- 2.5------------
1977-09-28 3.9 12.0 -2.9- 73.0- 0.0 3.0---- 0.0------------
1977-09-27 4.4 12.1 -1.2- 72.0- 0.0 1.3---- 0.0------------
1977-09-26 5.1 12.3 -1.3- 78.0- 0.7 2.0---- 0.0------------
1977-09-25 6.5 12.5 1.3- 71.3- 0.0 1.7---- 0.0------------
1977-09-24 5.3 12.6 -0.8- 85.8- 3.3 1.0---- 0.0------------
1977-09-23 9.7 13.3 7.2- 88.3- 5.7 1.7---- 0.0------------
1977-09-22 10.0 13.3 8.5- 96.3- 5.0 2.0---- 0.1------------
1977-09-21 8.6 12.8 3.1- 88.5- 8.0 0.0---- 0.2------------
1977-09-20 9.3 16.8 4.3- 86.3- 6.7 1.3---- 0.0------------
1977-09-19 6.6 13.9 -1.2- 87.0- 4.3 1.0---- 0.0------------
1977-09-18 6.1 13.7 -1.3- 80.5- 4.0 1.0---- 0.0------------
1977-09-17 6.3 12.4 2.6- 86.3- 5.3 2.0---- 1.0------------
1977-09-16 8.0 12.0 5.7- 70.3- 5.0 7.7---- 0.7------------
1977-09-15 10.9 13.3 8.6- 67.8- 6.0 15.3---- 1.2------------
1977-09-14 8.7 12.1 5.8- 86.3- 6.3 7.0---- 0.0------------
1977-09-13 7.6 13.5 2.8- 86.8- 2.7 1.7---- 0.6------------
1977-09-12 13.7 18.2 10.8- 95.5- 7.7 7.0---- 0.4------------
1977-09-11 12.4 16.0 8.5- 90.5- 7.3 3.7---- 4.1------------
1977-09-10 8.8 12.1 6.9- 84.8- 7.0 6.3---- 4.0------------
1977-09-09 10.5 15.9 8.3- 90.0- 4.0 2.0---- 2.6------------
1977-09-08 12.9 16.8 9.6- 80.5- 6.7 1.3---- 4.5------------
1977-09-07 16.2 18.7 13.0- 81.5- 4.7 1.3---- 1.0------------
1977-09-06 15.2 20.8 11.4- 84.3- 4.7 2.0---- 0.0------------
1977-09-05 12.7 20.1 3.7- 85.0- 2.7 1.7---- 0.0------------
1977-09-04 15.6 20.1 13.4- 83.5- 4.0 3.7---- 0.9------------
1977-09-03 18.4 25.7 13.2- 86.3- 7.0 1.0---- 13.5------------
1977-09-02 18.5 24.3 12.7- 90.0- 1.0 0.0---- 0.0------------
1977-09-01 20.0 26.5 15.2- 88.0- 3.3 1.3---- 0.0------------
1977-08-31 19.7 25.8 13.5- 86.0- 2.0 0.7---- 0.0------------
1977-08-30 16.3 25.0 6.4- 80.8- 1.3 3.3---- 0.0------------
1977-08-29 14.9 20.2 9.9- 82.0- 0.7 1.7---- 0.0------------
1977-08-28 15.2 21.4 11.1- 86.3- 6.0 1.0---- 0.0------------
1977-08-27 15.3 19.9 11.8- 88.3- 5.7 1.0---- 0.0------------
1977-08-26 16.9 22.6 12.8- 69.0- 6.0 2.7---- 0.0------------
1977-08-25 13.0 20.0 3.6- 72.0- 2.7 2.3---- 0.0------------
1977-08-24 11.5 19.3 2.5- 79.8- 2.3 0.0---- 0.0------------
1977-08-23 13.1 18.6 10.0- 77.5- 4.7 3.3---- 0.0------------
1977-08-22 14.6 18.9 11.5- 70.0- 3.0 6.3---- 0.0------------
1977-08-21 13.6 16.8 11.2- 76.5- 7.3 4.3---- 0.0------------
1977-08-20 14.3 18.6 10.5- 75.5- 4.7 1.3---- 0.0------------
1977-08-19 13.6 16.5 12.3- 88.3- 7.7 1.3---- 0.0------------
1977-08-18 13.9 19.2 8.1- 80.3- 4.7 3.7---- 5.8------------
1977-08-17 13.0 19.3 4.2- 74.0- 2.0 0.3---- 0.0------------
1977-08-16 12.9 19.0 6.4- 81.3- 4.7 0.0---- 0.0------------
1977-08-15 14.4 16.7 13.6- 85.0- 6.0 3.7---- 0.0------------
1977-08-14 16.3 20.2 15.5- 93.3- 7.7 0.7---- 4.6------------
1977-08-13 16.7 22.8 10.6- 83.8- 5.7 0.0---- 0.0------------
1977-08-12 17.1 19.7 16.2- 90.0- 7.0 0.3---- 0.0------------
498.6 ms

 

Źródłem pochodzenia danych jest Instytut Meteorologii i Gospodarki Wodnej – Państwowy Instytut Badawczy. Dane Instytutu Meteorologii i Gospodarki Wodnej – Państwowego Instytutu Badawczego zostały przetworzone.

Dane źródłowe można odnaleźć na stronie https://dane.imgw.pl